Time;durP1;ratioP1;P1;durP2;ratioP2;P2;SDS_P1;SDS_P2;PMS_P1;PMS_P2;Temp;Humidity;BMP_temperature;BMP_pressure;BME280_temperature;BME280_humidity;BME280_pressure;Samples;Min_cycle;Max_cycle;Signal;HPM_P1;HPM_P2
2022/04/14 00:01:58;;;;;;;17.38;12.30;;;;;;;14.65;63.74;101957.16;5149509;27;20148;-64
2022/04/14 00:04:27;;;;;;;19.00;12.68;;;;;;;14.64;64.10;101960.91;5141516;27;20214;-64
2022/04/14 00:06:55;;;;;;;17.83;12.90;;;;;;;14.63;63.82;101958.41;5133494;27;20047;-64
2022/04/14 00:09:22;;;;;;;16.30;12.50;;;;;;;14.62;64.18;101954.88;5146055;27;20488;-64
2022/04/14 00:11:50;;;;;;;16.42;11.82;;;;;;;14.61;63.91;101955.94;5144648;27;20099;-64
2022/04/14 00:14:18;;;;;;;17.58;12.15;;;;;;;14.61;64.09;101952.41;5147111;27;20050;-64
2022/04/14 00:16:46;;;;;;;14.77;12.75;;;;;;;14.59;63.88;101954.50;5139874;27;20115;-64
2022/04/14 00:19:13;;;;;;;15.80;11.98;;;;;;;14.57;63.76;101948.47;5142457;27;20159;-64
2022/04/14 00:21:42;;;;;;;16.50;12.30;;;;;;;14.55;64.26;101943.28;5144485;27;20114;-64
2022/04/14 00:24:10;;;;;;;15.30;12.20;;;;;;;14.55;64.27;101953.28;5143576;28;20100;-64
2022/04/14 00:26:38;;;;;;;16.55;12.38;;;;;;;14.43;63.79;101928.00;5147371;27;20108;-64
2022/04/14 00:29:06;;;;;;;16.65;12.63;;;;;;;14.52;64.26;101937.50;5154500;27;20046;-64
2022/04/14 00:31:34;;;;;;;15.70;11.63;;;;;;;14.50;64.32;101939.59;5146838;27;20131;-64
2022/04/14 00:34:01;;;;;;;16.85;11.93;;;;;;;14.49;63.90;101941.47;5152645;27;20074;-64
2022/04/14 00:36:29;;;;;;;16.45;11.90;;;;;;;14.48;64.08;101936.28;5140380;27;20078;-64
2022/04/14 00:38:58;;;;;;;16.38;12.73;;;;;;;14.45;63.75;101932.13;5146292;27;20096;-64
2022/04/14 00:41:27;;;;;;;17.98;12.70;;;;;;;14.44;63.72;101930.47;5139956;27;20524;-64
2022/04/14 00:43:55;;;;;;;16.80;12.85;;;;;;;14.44;63.92;101935.06;5131481;27;20078;-64
2022/04/14 00:46:23;;;;;;;15.50;11.65;;;;;;;14.43;64.15;101938.81;5136978;27;20137;-64
2022/04/14 00:48:53;;;;;;;18.52;12.07;;;;;;;14.43;63.80;101941.53;5140884;27;20072;-64
2022/04/14 00:51:21;;;;;;;16.17;11.60;;;;;;;14.42;64.00;101948.81;5153095;27;20139;-64
2022/04/14 00:53:49;;;;;;;13.82;11.65;;;;;;;14.29;63.71;101925.38;5157456;27;20058;-64
2022/04/14 00:56:18;;;;;;;14.23;11.60;;;;;;;14.39;64.00;101934.88;5148632;27;20078;-64
2022/04/14 00:58:46;;;;;;;15.65;11.85;;;;;;;14.38;63.91;101947.56;5145858;27;20480;-64
2022/04/14 01:01:14;;;;;;;13.27;10.93;;;;;;;14.37;63.96;101936.97;5141964;27;20061;-64
2022/04/14 01:03:46;;;;;;;15.73;12.18;;;;;;;14.37;64.09;101943.19;5144955;27;20126;-64
2022/04/14 01:06:15;;;;;;;14.75;11.60;;;;;;;14.37;63.63;101951.31;5147503;27;20171;-64
2022/04/14 01:09:16;;;;;;;13.43;11.68;;;;;;;14.37;64.05;101954.03;5144729;27;20141;-64
2022/04/14 01:11:34;;;;;;;16.33;12.07;;;;;;;14.36;64.32;101948.81;5137709;27;20097;-64
2022/04/14 01:14:02;;;;;;;14.35;11.38;;;;;;;14.30;64.22;101937.84;5154683;27;20077;-64
2022/04/14 01:16:30;;;;;;;15.07;11.88;;;;;;;14.34;64.06;101944.47;5162172;27;20050;-64
2022/04/14 01:18:58;;;;;;;14.90;11.43;;;;;;;14.32;63.57;101938.44;5151512;27;20043;-64
2022/04/14 01:21:33;;;;;;;13.75;12.25;;;;;;;14.32;64.30;101938.44;5148067;27;20054;-64
2022/04/14 01:24:03;;;;;;;16.52;11.77;;;;;;;14.31;63.92;101942.22;5152066;27;20054;-64
2022/04/14 01:26:31;;;;;;;17.77;12.57;;;;;;;14.31;63.84;101935.97;5146084;27;20460;-64
2022/04/14 01:28:59;;;;;;;14.63;11.30;;;;;;;14.29;63.91;101938.06;5152926;27;20066;-64
2022/04/14 01:31:27;;;;;;;16.35;12.80;;;;;;;14.29;64.05;101936.19;5153929;27;20431;-64
2022/04/14 01:33:55;;;;;;;17.38;11.75;;;;;;;14.27;64.03;101941.00;5146422;27;20051;-63
2022/04/14 01:36:22;;;;;;;14.80;11.70;;;;;;;14.27;63.90;101945.56;5139741;27;20043;-64
2022/04/14 01:38:50;;;;;;;15.55;11.00;;;;;;;14.26;64.08;101946.63;5146225;27;20043;-65
2022/04/14 01:41:19;;;;;;;15.00;11.55;;;;;;;14.25;63.98;101944.97;5160671;27;20063;-64
2022/04/14 01:43:47;;;;;;;16.90;12.52;;;;;;;14.24;63.84;101943.31;5148270;27;20058;-64
2022/04/14 01:46:15;;;;;;;14.00;11.05;;;;;;;14.23;63.94;101934.34;5157289;27;20090;-64
2022/04/14 01:48:42;;;;;;;14.75;11.25;;;;;;;14.22;64.30;101945.41;5139095;27;20133;-64
2022/04/14 01:51:10;;;;;;;15.85;11.73;;;;;;;14.21;63.78;101941.03;5145751;27;20071;-65
2022/04/14 01:53:38;;;;;;;14.95;11.57;;;;;;;14.19;64.24;101938.56;5149116;27;20123;-65
2022/04/14 01:56:06;;;;;;;15.05;11.02;;;;;;;14.19;63.70;101945.84;5144862;27;20057;-65
2022/04/14 01:58:35;;;;;;;14.65;11.60;;;;;;;14.17;64.14;101942.53;5147953;27;20055;-64
2022/04/14 02:01:03;;;;;;;15.70;12.13;;;;;;;14.16;63.75;101938.16;5143458;27;20043;-65
2022/04/14 02:03:31;;;;;;;14.82;12.25;;;;;;;14.14;64.00;101951.91;5142011;27;20039;-64
2022/04/14 02:05:58;;;;;;;17.13;11.00;;;;;;;14.14;63.72;101946.50;5138884;27;20200;-64
2022/04/14 02:08:26;;;;;;;14.63;11.25;;;;;;;14.13;63.83;101957.53;5152239;27;20058;-64
2022/04/14 02:10:54;;;;;;;15.45;11.18;;;;;;;14.11;63.75;101954.22;5146567;27;20078;-64
2022/04/14 02:13:21;;;;;;;14.60;11.30;;;;;;;14.10;64.06;101949.84;5140165;27;20075;-64
2022/04/14 02:15:51;;;;;;;17.55;12.27;;;;;;;14.09;64.01;101950.91;5159513;27;20106;-64
2022/04/14 02:18:18;;;;;;;19.70;11.85;;;;;;;14.08;63.84;101949.22;5147777;27;20054;-64
2022/04/14 02:20:46;;;;;;;13.98;11.77;;;;;;;14.07;63.95;101953.81;5147890;27;20039;-64
2022/04/14 02:23:14;;;;;;;15.85;11.95;;;;;;;14.00;63.74;101940.34;5155107;27;20068;-65
2022/04/14 02:25:42;;;;;;;15.90;11.63;;;;;;;14.06;63.62;101948.63;5136462;27;20071;-64
2022/04/14 02:28:10;;;;;;;13.63;11.27;;;;;;;14.04;64.03;101954.25;5143157;27;20208;-64
2022/04/14 02:30:38;;;;;;;14.35;11.75;;;;;;;14.00;64.06;101948.44;5148487;27;20039;-64
2022/04/14 02:33:07;;;;;;;14.88;11.00;;;;;;;14.01;64.09;101946.56;5144505;27;20121;-64
2022/04/14 02:35:35;;;;;;;16.83;12.77;;;;;;;14.01;63.94;101949.28;5151967;27;20039;-64
2022/04/14 02:38:02;;;;;;;15.60;12.55;;;;;;;14.01;63.86;101946.56;5134638;27;20083;-64
2022/04/14 02:40:30;;;;;;;15.05;11.82;;;;;;;13.99;64.04;101954.06;5144010;27;20067;-64
2022/04/14 02:42:58;;;;;;;14.40;11.55;;;;;;;13.99;63.83;101954.91;5148804;27;20047;-64
2022/04/14 02:45:27;;;;;;;15.80;12.20;;;;;;;13.99;63.84;101957.59;5136965;27;20096;-65
2022/04/14 02:47:55;;;;;;;14.02;12.05;;;;;;;13.99;64.43;101962.19;5141929;27;20047;-64
2022/04/14 02:50:24;;;;;;;16.25;11.82;;;;;;;13.98;64.00;101952.41;5150997;27;20065;-64
2022/04/14 02:52:54;;;;;;;16.92;12.25;;;;;;;13.97;63.98;101954.28;5137310;27;20054;-64
2022/04/14 02:55:22;;;;;;;16.38;12.60;;;;;;;13.97;63.73;101956.16;5148714;27;20036;-64
2022/04/14 02:57:50;;;;;;;14.52;11.55;;;;;;;13.93;63.85;101953.06;5145616;27;20054;-64
2022/04/14 03:00:18;;;;;;;17.52;12.13;;;;;;;13.96;63.75;101952.63;5143050;27;20079;-64
2022/04/14 03:02:46;;;;;;;15.88;12.48;;;;;;;13.95;64.30;101959.09;5143281;27;20083;-64
2022/04/14 03:05:14;;;;;;;16.63;12.32;;;;;;;13.94;64.26;101953.91;5150528;27;20069;-64
2022/04/14 03:07:43;;;;;;;17.35;13.57;;;;;;;13.93;63.86;101954.94;5127701;27;20074;-64
2022/04/14 03:10:11;;;;;;;16.10;12.57;;;;;;;13.91;64.28;101954.31;5153814;27;20086;-64
2022/04/14 03:12:43;;;;;;;18.67;14.15;;;;;;;13.91;64.11;101962.44;5140102;27;20073;-64
2022/04/14 03:15:11;;;;;;;14.60;12.38;;;;;;;13.91;64.21;101957.03;5154511;27;20147;-64
2022/04/14 03:17:39;;;;;;;16.35;12.27;;;;;;;13.88;64.00;101963.69;5148048;27;20054;-64
2022/04/14 03:20:08;;;;;;;15.30;12.18;;;;;;;13.87;64.03;101964.75;5144810;27;20090;-64
2022/04/14 03:22:37;;;;;;;15.57;13.20;;;;;;;13.87;64.27;101969.31;5152840;27;20054;-65
2022/04/14 03:25:08;;;;;;;16.83;13.13;;;;;;;13.86;64.35;101970.41;5141036;27;20090;-65
2022/04/14 03:27:37;;;;;;;18.08;13.10;;;;;;;13.84;64.05;101969.78;5137619;27;20120;-64
2022/04/14 03:30:05;;;;;;;15.93;12.77;;;;;;;13.83;63.71;101970.81;5155659;27;20048;-64
2022/04/14 03:32:33;;;;;;;16.60;13.10;;;;;;;13.81;63.81;101962.94;5149327;27;20793;-63
2022/04/14 03:35:03;;;;;;;15.90;12.68;;;;;;;13.80;63.77;101963.16;5151467;27;20543;-64
2022/04/14 03:37:32;;;;;;;19.48;13.30;;;;;;;13.80;64.08;101966.69;5138922;27;20054;-64
2022/04/14 03:39:59;;;;;;;18.15;13.35;;;;;;;13.78;63.83;101960.66;5150522;27;20086;-64
2022/04/14 03:42:28;;;;;;;16.88;13.20;;;;;;;13.77;64.14;101961.72;5152939;27;20071;-64
2022/04/14 03:44:57;;;;;;;19.50;14.13;;;;;;;13.76;63.81;101964.63;5157365;27;20104;-64
2022/04/14 03:47:25;;;;;;;17.08;13.82;;;;;;;13.75;63.81;101961.09;5150899;27;20051;-64
2022/04/14 03:49:53;;;;;;;16.92;13.32;;;;;;;13.74;63.83;101958.59;5143733;27;20085;-65
2022/04/14 03:52:21;;;;;;;16.63;13.15;;;;;;;13.72;64.29;101952.59;5143239;27;20062;-65
2022/04/14 03:54:49;;;;;;;15.95;12.43;;;;;;;13.72;63.75;101952.59;5142974;27;20079;-65
2022/04/14 03:57:16;;;;;;;17.75;13.18;;;;;;;13.71;64.10;101957.16;5156555;27;20468;-65
2022/04/14 03:59:45;;;;;;;17.23;12.93;;;;;;;13.71;63.87;101953.63;5146587;27;20090;-64
2022/04/14 04:02:13;;;;;;;17.33;13.25;;;;;;;13.67;63.66;101950.53;5146819;27;20079;-64
2022/04/14 04:04:41;;;;;;;18.58;13.02;;;;;;;13.68;63.63;101960.28;5145037;27;20373;-64
2022/04/14 04:07:09;;;;;;;17.15;13.23;;;;;;;13.62;64.13;101953.88;5151574;27;20054;-65
2022/04/14 04:09:38;;;;;;;17.63;13.48;;;;;;;13.66;63.91;101955.09;5134262;27;20076;-65
2022/04/14 04:12:07;;;;;;;18.30;13.98;;;;;;;13.65;64.03;101961.56;5154600;27;20042;-65
2022/04/14 04:14:35;;;;;;;18.40;13.13;;;;;;;13.64;64.04;101959.91;5151180;27;20131;-65
2022/04/14 04:17:05;;;;;;;16.75;13.05;;;;;;;13.63;64.15;101960.94;5143991;27;20077;-65
2022/04/14 04:19:33;;;;;;;16.60;13.27;;;;;;;13.63;63.68;101957.41;5146120;27;20081;-64
2022/04/14 04:22:02;;;;;;;19.08;14.00;;;;;;;13.63;64.10;101970.91;5141206;27;20529;-65
2022/04/14 04:24:29;;;;;;;16.73;13.48;;;;;;;13.62;63.84;101969.25;5143682;27;20082;-65
2022/04/14 04:26:57;;;;;;;17.70;13.60;;;;;;;13.61;64.14;101971.13;5140236;27;20075;-65
2022/04/14 04:29:25;;;;;;;18.33;13.93;;;;;;;13.60;63.98;101980.28;5141244;27;20061;-65
2022/04/14 04:31:52;;;;;;;19.00;14.57;;;;;;;13.60;63.63;101987.56;5152493;27;20039;-64
2022/04/14 04:34:21;;;;;;;19.20;14.52;;;;;;;13.60;63.68;101984.84;5142735;27;20348;-64
2022/04/14 04:36:50;;;;;;;19.15;15.00;;;;;;;13.52;63.87;101977.00;5144146;27;20071;-64
2022/04/14 04:39:17;;;;;;;19.08;14.80;;;;;;;13.56;63.79;101989.03;5151329;27;20115;-65
2022/04/14 04:41:45;;;;;;;20.02;15.88;;;;;;;13.54;64.05;101994.63;5140189;28;20046;-64
2022/04/14 04:44:13;;;;;;;18.55;15.30;;;;;;;13.54;63.92;101989.25;5141267;27;20150;-64
2022/04/14 04:46:40;;;;;;;22.85;15.52;;;;;;;13.52;63.55;101988.63;5132764;27;20039;-64
2022/04/14 04:49:08;;;;;;;19.75;15.55;;;;;;;13.51;63.70;101988.84;5142030;27;20062;-64
2022/04/14 04:51:37;;;;;;;20.60;15.05;;;;;;;13.49;63.76;101990.91;5141254;27;20074;-65
2022/04/14 04:54:05;;;;;;;24.35;16.08;;;;;;;13.48;63.62;101992.78;5147280;27;20399;-64
2022/04/14 04:56:33;;;;;;;23.00;14.70;;;;;;;13.47;63.56;101993.84;5142615;27;20043;-67
2022/04/14 04:59:00;;;;;;;20.45;14.65;;;;;;;13.45;63.94;101995.91;5149324;27;20059;-65
2022/04/14 05:01:28;;;;;;;23.63;15.52;;;;;;;13.45;63.73;102000.50;5144751;27;20061;-64
2022/04/14 05:03:56;;;;;;;21.05;15.27;;;;;;;13.41;63.81;102000.09;5152898;27;20043;-63
2022/04/14 05:06:24;;;;;;;22.58;15.10;;;;;;;13.42;63.88;102004.44;5143013;27;20055;-64
2022/04/14 05:08:53;;;;;;;23.10;16.85;;;;;;;13.40;63.82;102000.31;5146643;27;20066;-62
2022/04/14 05:11:22;;;;;;;26.73;17.00;;;;;;;13.39;63.60;101998.63;5152761;27;20074;-63
2022/04/14 05:13:50;;;;;;;25.25;16.58;;;;;;;13.37;63.83;102000.72;5145674;27;20106;-59
2022/04/14 05:16:18;;;;;;;27.60;17.25;;;;;;;13.35;63.85;102009.03;5149993;27;20114;-62
2022/04/14 05:18:45;;;;;;;25.15;17.42;;;;;;;13.34;63.79;102010.91;5154365;27;20056;-64
2022/04/14 05:21:13;;;;;;;25.38;18.52;;;;;;;13.33;63.75;102003.00;5133554;27;20090;-63
2022/04/14 05:23:41;;;;;;;23.63;16.42;;;;;;;13.32;63.98;102006.75;5146076;27;20080;-62
2022/04/14 05:26:10;;;;;;;23.73;16.95;;;;;;;13.31;63.85;102014.03;5146940;27;20043;-63
2022/04/14 05:28:38;;;;;;;25.63;17.75;;;;;;;13.30;63.63;102016.94;5141807;27;20127;-62
2022/04/14 05:31:06;;;;;;;26.65;17.95;;;;;;;13.29;63.87;102017.97;5147268;27;20487;-63
2022/04/14 05:33:34;;;;;;;24.63;17.73;;;;;;;13.28;63.57;102021.72;5141854;27;20062;-64
2022/04/14 05:36:01;;;;;;;25.90;17.73;;;;;;;13.27;63.55;102020.06;5145468;27;20066;-61
2022/04/14 05:38:29;;;;;;;24.40;17.25;;;;;;;13.25;63.96;102024.84;5146791;27;20082;-64
2022/04/14 05:40:57;;;;;;;24.58;17.42;;;;;;;13.24;63.69;102032.09;5146627;27;20062;-62
2022/04/14 05:43:28;;;;;;;25.23;18.88;;;;;;;13.24;63.53;102031.28;5138811;27;20043;-62
2022/04/14 05:45:56;;;;;;;26.77;18.40;;;;;;;13.24;63.88;102037.50;5139709;27;20039;-62
2022/04/14 05:48:24;;;;;;;25.65;17.35;;;;;;;13.23;63.89;102043.13;4777716;27;9999878;-64
2022/04/14 05:50:52;;;;;;;23.92;17.30;;;;;;;13.23;63.40;102041.25;5140514;27;20039;-64
2022/04/14 05:53:26;;;;;;;23.88;16.83;;;;;;;13.24;63.64;102042.91;5144742;27;20107;-63
2022/04/14 05:55:55;;;;;;;24.95;17.98;;;;;;;13.23;63.73;102035.84;5137676;27;20129;-64
2022/04/14 05:58:23;;;;;;;22.65;17.00;;;;;;;13.19;63.96;102040.00;5143171;27;20497;-64
2022/04/14 06:00:52;;;;;;;25.38;17.80;;;;;;;13.23;63.59;102048.50;5128801;27;20054;-64
2022/04/14 06:03:20;;;;;;;24.08;17.98;;;;;;;13.17;64.04;102035.84;5137596;27;20047;-64
2022/04/14 06:05:48;;;;;;;26.20;18.02;;;;;;;13.22;63.63;102038.75;5142280;27;20112;-64
2022/04/14 06:08:15;;;;;;;30.95;18.83;;;;;;;13.22;63.79;102049.56;5143128;27;20098;-64
2022/04/14 06:10:43;;;;;;;26.63;18.00;;;;;;;13.20;63.86;102043.53;5140240;27;20081;-65
2022/04/14 06:13:12;;;;;;;24.25;18.05;;;;;;;13.21;63.97;102047.91;4807999;27;10000520;-63
2022/04/14 06:15:40;;;;;;;26.30;17.73;;;;;;;13.22;63.90;102055.78;5145650;27;20267;-61
2022/04/14 06:18:09;;;;;;;28.55;18.73;;;;;;;13.17;64.31;102046.66;5145643;27;20078;-64
2022/04/14 06:20:37;;;;;;;23.58;17.33;;;;;;;13.20;64.20;102051.63;5139547;27;20079;-62
2022/04/14 06:23:05;;;;;;;30.58;18.85;;;;;;;13.20;64.35;102043.53;5141895;27;20051;-63
2022/04/14 06:25:33;;;;;;;26.83;17.73;;;;;;;13.19;64.34;102042.72;5145926;27;20043;-62
2022/04/14 06:28:01;;;;;;;30.52;18.83;;;;;;;13.20;64.29;102051.63;5142794;27;20079;-60
2022/04/14 06:30:29;;;;;;;24.73;17.85;;;;;;;13.19;63.99;102045.41;5144434;27;20051;-63
2022/04/14 06:32:58;;;;;;;25.90;18.25;;;;;;;13.19;64.34;102052.69;5145238;27;20081;-62
2022/04/14 06:35:28;;;;;;;27.67;18.65;;;;;;;13.19;64.03;102050.81;5141346;27;20043;-63
2022/04/14 06:37:56;;;;;;;26.85;17.13;;;;;;;13.21;63.69;102053.28;5143443;27;20096;-63
2022/04/14 06:40:24;;;;;;;25.85;18.17;;;;;;;13.21;63.72;102054.13;5145573;27;20079;-63
2022/04/14 06:43:01;;;;;;;22.05;16.73;;;;;;;13.23;63.90;102056.63;5145212;27;20043;-63
2022/04/14 06:45:31;;;;;;;26.48;18.17;;;;;;;13.24;63.94;102058.28;5146026;27;20154;-63
2022/04/14 06:47:59;;;;;;;25.50;16.90;;;;;;;13.24;63.85;102060.97;5136692;27;20062;-63
2022/04/14 06:50:28;;;;;;;27.33;16.85;;;;;;;13.23;63.70;102068.25;5145982;27;20103;-63
2022/04/14 06:52:56;;;;;;;24.23;17.08;;;;;;;13.24;63.57;102063.69;5144483;27;20043;-63
2022/04/14 06:55:25;;;;;;;24.38;16.55;;;;;;;13.23;63.88;102062.00;5145450;27;20538;-63
2022/04/14 06:57:53;;;;;;;22.63;15.35;;;;;;;13.22;63.81;102066.59;5135576;27;20043;-63
2022/04/14 07:00:21;;;;;;;22.80;16.25;;;;;;;13.22;63.85;102057.66;5145595;27;20078;-63
2022/04/14 07:02:50;;;;;;;19.67;15.02;;;;;;;13.24;64.01;102072.59;5135584;27;20047;-63
2022/04/14 07:05:18;;;;;;;22.75;15.52;;;;;;;13.25;63.95;102071.56;5146049;27;20051;-63
2022/04/14 07:07:47;;;;;;;21.52;15.13;;;;;;;13.26;63.75;102064.28;5145020;27;20111;-63
2022/04/14 07:10:15;;;;;;;20.95;13.52;;;;;;;13.26;63.75;102057.03;5129753;27;20055;-63
2022/04/14 07:12:45;;;;;;;19.10;14.20;;;;;;;13.28;63.67;102060.34;5144495;27;20074;-63
2022/04/14 07:15:13;;;;;;;21.52;13.88;;;;;;;13.29;64.14;102066.56;5143261;27;20129;-64
2022/04/14 07:17:41;;;;;;;19.67;14.75;;;;;;;13.30;64.14;102068.25;5138299;27;20063;-63
2022/04/14 07:20:10;;;;;;;17.70;13.05;;;;;;;13.19;64.07;102045.41;5138912;27;20050;-64
2022/04/14 07:22:42;;;;;;;18.20;13.45;;;;;;;13.35;63.96;102066.56;5143383;27;20068;-64
2022/04/14 07:25:12;;;;;;;20.55;13.45;;;;;;;13.39;64.30;102069.69;5150572;27;20043;-64
2022/04/14 07:27:40;;;;;;;18.88;13.70;;;;;;;13.39;64.52;102072.38;5141430;27;20119;-66
2022/04/14 07:30:08;;;;;;;20.75;13.48;;;;;;;13.45;64.26;102065.31;5145102;27;20085;-65
2022/04/14 07:32:37;;;;;;;20.10;13.45;;;;;;;13.47;64.32;102072.16;5134349;27;20059;-66
2022/04/14 07:35:06;;;;;;;17.30;13.00;;;;;;;13.50;64.55;102079.84;5141278;27;20058;-65
2022/04/14 07:37:36;;;;;;;18.63;13.15;;;;;;;13.54;64.33;102081.06;5132310;27;20055;-63
2022/04/14 07:40:05;;;;;;;18.30;13.27;;;;;;;13.57;64.24;102086.06;5143628;27;20116;-66
2022/04/14 07:42:35;;;;;;;17.60;13.50;;;;;;;13.59;64.54;102088.53;5139217;27;20100;-65
2022/04/14 07:45:04;;;;;;;17.73;12.40;;;;;;;13.61;64.28;102094.56;5142914;27;20548;-62
2022/04/14 07:47:41;;;;;;;19.02;12.60;;;;;;;13.60;64.38;102085.63;5144911;27;20074;-64
2022/04/14 07:50:09;;;;;;;14.52;11.80;;;;;;;13.60;64.31;102088.34;5138784;27;20161;-65
2022/04/14 07:52:45;;;;;;;22.05;13.23;;;;;;;13.62;64.38;102085.41;5140066;27;20153;-65
2022/04/14 07:55:12;;;;;;;18.45;12.82;;;;;;;13.58;64.87;102076.91;5143581;27;20051;-63
2022/04/14 07:57:41;;;;;;;13.77;10.63;;;;;;;13.67;64.28;102081.03;5134054;27;20102;-60
2022/04/14 08:00:10;;;;;;;20.08;13.27;;;;;;;13.80;66.15;102085.56;5144090;27;20075;-61
2022/04/14 08:02:47;;;;;;;17.73;13.23;;;;;;;13.80;64.48;102073.94;5144450;27;20055;-60
2022/04/14 08:05:15;;;;;;;16.13;11.48;;;;;;;13.79;64.55;102073.09;5144842;27;20062;-70
2022/04/14 08:07:43;;;;;;;19.33;12.48;;;;;;;13.79;64.72;102072.28;5151189;27;20115;-67
2022/04/14 08:10:11;;;;;;;16.83;11.73;;;;;;;13.81;64.71;102072.91;5142898;27;20071;-67
2022/04/14 08:12:39;;;;;;;17.23;12.43;;;;;;;13.83;64.94;102076.22;5138326;27;20043;-67
2022/04/14 08:15:10;;;;;;;16.10;11.15;;;;;;;13.84;65.26;102073.28;5137076;27;20082;-66
2022/04/14 08:17:40;;;;;;;15.98;10.93;;;;;;;13.75;65.53;102055.66;5144384;27;20043;-67
2022/04/14 08:20:09;;;;;;;19.98;12.82;;;;;;;13.85;65.36;102060.63;5144830;27;20051;-66
2022/04/14 08:22:47;;;;;;;17.77;12.70;;;;;;;14.07;65.52;102077.34;5140923;27;20082;-68
2022/04/14 08:25:17;;;;;;;18.55;11.80;;;;;;;14.15;66.10;102068.97;5139689;27;20075;-65
2022/04/14 08:27:46;;;;;;;17.38;12.52;;;;;;;14.15;66.38;102077.91;5122008;27;20044;-61
2022/04/14 08:30:17;;;;;;;15.95;11.02;;;;;;;14.05;66.14;102074.84;5136665;27;20058;-66
2022/04/14 08:32:45;;;;;;;14.05;10.88;;;;;;;14.04;66.19;102064.25;5136404;27;20040;-68
2022/04/14 08:35:14;;;;;;;14.68;10.77;;;;;;;14.07;65.97;102075.47;5137712;27;20047;-69
2022/04/14 08:37:44;;;;;;;13.48;10.25;;;;;;;14.06;65.99;102071.09;5139439;27;20081;-69
2022/04/14 08:40:14;;;;;;;12.18;10.07;;;;;;;14.10;66.22;102079.59;5138466;27;20411;-66
2022/04/14 08:42:43;;;;;;;13.68;9.80;;;;;;;14.09;66.05;102078.78;5140004;28;20043;-67
2022/04/14 08:45:13;;;;;;;16.48;10.90;;;;;;;14.12;65.77;102080.22;5133697;27;20047;-67
2022/04/14 08:47:42;;;;;;;13.80;10.75;;;;;;;14.29;68.14;102087.63;5138365;27;20054;-69
2022/04/14 08:50:12;;;;;;;13.88;9.50;;;;;;;14.25;67.23;102080.16;5136513;27;20047;-68
2022/04/14 08:52:40;;;;;;;22.42;10.52;;;;;;;14.32;68.68;102072.84;5137798;27;20160;-68
2022/04/14 08:55:11;;;;;;;11.15;8.55;;;;;;;14.28;66.70;102068.91;5134058;27;20065;-68
2022/04/14 08:57:41;;;;;;;11.05;8.30;;;;;;;14.30;67.16;102072.22;5143744;27;20039;-68
2022/04/14 09:00:11;;;;;;;11.63;8.88;;;;;;;14.29;66.69;102071.41;5143126;27;20088;-68
2022/04/14 09:02:39;;;;;;;13.60;9.85;;;;;;;14.40;68.47;102066.34;5140768;27;20043;-68
2022/04/14 09:05:09;;;;;;;14.75;10.02;;;;;;;14.42;68.76;102070.53;5144443;27;20478;-68
2022/04/14 09:07:38;;;;;;;12.02;8.93;;;;;;;14.46;68.26;102068.22;5143987;27;20078;-67
2022/04/14 09:10:07;;;;;;;14.73;8.35;;;;;;;14.47;67.50;102072.56;5142553;27;20062;-68
2022/04/14 09:12:36;;;;;;;11.60;8.38;;;;;;;14.46;67.67;102069.03;5142723;27;20058;-67
2022/04/14 09:15:05;;;;;;;11.13;7.28;;;;;;;14.49;67.39;102067.78;5151685;27;20561;-67
2022/04/14 09:17:33;;;;;;;9.45;7.03;;;;;;;14.48;66.58;102074.25;5145052;27;20043;-67
2022/04/14 09:20:01;;;;;;;11.15;7.00;;;;;;;14.49;66.54;102074.03;5142286;27;20065;-67
2022/04/14 09:22:30;;;;;;;10.48;6.90;;;;;;;14.50;66.28;102074.84;5142299;27;20073;-69
2022/04/14 09:24:58;;;;;;;9.68;6.20;;;;;;;14.50;65.97;102067.56;5141972;27;20050;-68
2022/04/14 09:27:27;;;;;;;8.43;5.95;;;;;;;14.52;65.81;102061.94;5142994;27;20556;-68
2022/04/14 09:29:57;;;;;;;8.40;6.30;;;;;;;14.53;65.55;102053.59;5143898;27;20119;-68
2022/04/14 09:32:30;;;;;;;10.80;6.03;;;;;;;14.47;65.58;102046.34;5139782;27;20039;-67
2022/04/14 09:34:59;;;;;;;7.00;5.10;;;;;;;14.56;65.34;102061.28;5143243;27;20083;-67
2022/04/14 09:37:27;;;;;;;8.65;4.78;;;;;;;14.58;65.34;102058.34;5141473;27;20065;-67
2022/04/14 09:40:02;;;;;;;6.78;4.97;;;;;;;14.60;65.28;102058.97;5142164;27;20085;-67
2022/04/14 09:42:31;;;;;;;9.35;5.30;;;;;;;14.61;64.78;102052.50;5140377;27;20070;-68
2022/04/14 09:45:19;;;;;;;6.93;4.50;;;;;;;14.64;65.08;102050.19;5144433;27;20043;-67
2022/04/14 09:48:05;;;;;;;8.75;4.63;;;;;;;14.67;64.73;102050.81;5142516;27;20078;-69
2022/04/14 09:50:35;;;;;;;8.73;4.80;;;;;;;14.64;64.15;102042.06;5141168;27;20042;-68
2022/04/14 09:53:09;;;;;;;5.05;3.67;;;;;;;14.70;64.69;102037.66;5138259;27;20047;-68
2022/04/14 09:55:39;;;;;;;6.22;3.85;;;;;;;14.73;64.40;102044.50;5139402;27;20051;-68
2022/04/14 09:58:09;;;;;;;5.70;3.97;;;;;;;14.77;64.50;102037.59;5144230;27;20099;-67
2022/04/14 10:00:42;;;;;;;6.25;3.85;;;;;;;14.80;64.09;102037.16;5142441;27;20061;-68
2022/04/14 10:03:13;;;;;;;6.72;4.03;;;;;;;14.80;64.11;102026.34;5140735;27;20055;-68
2022/04/14 10:05:42;;;;;;;7.13;3.60;;;;;;;14.84;64.45;102035.69;5144168;27;20039;-68
2022/04/14 10:08:12;;;;;;;5.80;3.50;;;;;;;14.88;64.43;102035.00;5144544;27;20105;-70
2022/04/14 10:10:43;;;;;;;6.07;3.80;;;;;;;14.93;64.44;102020.81;5142673;27;20107;-68
2022/04/14 10:13:12;;;;;;;4.97;3.30;;;;;;;14.99;64.76;102028.03;5144005;27;20088;-69
2022/04/14 10:15:41;;;;;;;6.35;3.33;;;;;;;15.04;64.78;102025.50;5135954;27;20044;-68
2022/04/14 10:18:11;;;;;;;6.68;3.60;;;;;;;15.11;64.85;102028.16;5138855;27;20078;-68
2022/04/14 10:20:40;;;;;;;5.68;3.00;;;;;;;15.15;64.85;102030.19;5145568;27;20055;-68
2022/04/14 10:23:10;;;;;;;5.25;3.10;;;;;;;15.20;64.54;102038.47;5134588;27;20090;-66
2022/04/14 10:25:38;;;;;;;5.75;2.63;;;;;;;15.24;64.63;102052.41;5138543;27;20085;-67
2022/04/14 10:28:10;;;;;;;6.43;2.72;;;;;;;15.26;63.91;102058.41;5136612;27;20445;-68
2022/04/14 10:30:38;;;;;;;3.97;2.60;;;;;;;15.27;63.92;102065.50;5135508;27;20052;-68
2022/04/14 10:33:06;;;;;;;5.97;2.70;;;;;;;15.30;63.80;102065.03;5140136;27;20058;-68
2022/04/14 10:35:33;;;;;;;6.57;3.28;;;;;;;15.27;63.05;102054.66;5137345;27;20039;-68
2022/04/14 10:38:07;;;;;;;3.55;2.30;;;;;;;15.34;62.68;102068.97;5142713;27;20231;-67
2022/04/14 10:40:37;;;;;;;4.55;2.70;;;;;;;15.37;62.85;102070.41;5137533;27;20182;-67
2022/04/14 10:43:12;;;;;;;4.82;2.95;;;;;;;15.41;62.95;102072.44;5137894;27;20081;-67
2022/04/14 10:45:51;;;;;;;6.40;2.80;;;;;;;15.43;62.00;102064.91;5140710;27;20046;-67
2022/04/14 10:48:30;;;;;;;5.70;2.80;;;;;;;15.47;62.10;102065.28;5143036;27;20042;-68
2022/04/14 10:51:19;;;;;;;6.43;2.78;;;;;;;15.53;62.59;102070.63;5148509;27;20043;-68
2022/04/14 10:53:52;;;;;;;7.38;3.47;;;;;;;15.59;61.99;102072.47;5135430;27;20047;-68
2022/04/14 10:56:49;;;;;;;4.97;2.88;;;;;;;15.62;60.97;102063.03;5135950;27;20079;-68
2022/04/14 10:59:21;;;;;;;3.90;2.92;;;;;;;15.67;61.08;102062.38;5141766;27;20468;-67
2022/04/14 11:01:53;;;;;;;8.20;3.15;;;;;;;15.70;60.13;102061.91;5138308;27;20131;-67
2022/04/14 11:04:27;;;;;;;6.75;3.10;;;;;;;15.71;59.89;102071.69;5136299;27;20070;-67
2022/04/14 11:06:57;;;;;;;4.72;3.40;;;;;;;15.72;59.90;102070.66;5140130;27;20043;-67
2022/04/14 11:09:54;;;;;;;6.03;4.10;;;;;;;15.71;59.41;102069.81;5137613;27;20079;-67
2022/04/14 11:12:23;;;;;;;8.13;4.32;;;;;;;15.72;59.26;102060.63;5130442;27;20050;-67
2022/04/14 11:14:57;;;;;;;8.35;4.50;;;;;;;15.77;59.83;102066.19;5141327;27;20043;-64
2022/04/14 11:18:06;;;;;;;9.63;4.57;;;;;;;15.84;59.69;102074.25;5142415;27;20074;-64
2022/04/14 11:21:01;;;;;;;9.40;4.40;;;;;;;15.92;59.79;102065.81;5129526;27;20420;-65
2022/04/14 11:23:29;;;;;;;7.55;3.90;;;;;;;15.93;59.64;102067.47;5143020;27;20059;-67